createdAt,value
2017-05-15T00:02:22.050Z,11.30
2017-05-15T00:04:49.693Z,11.30
2017-05-15T00:07:16.615Z,11.40
2017-05-15T00:09:43.542Z,11.40
2017-05-15T00:12:10.442Z,11.50
2017-05-15T00:14:38.090Z,11.50
2017-05-15T00:17:05.765Z,11.50
2017-05-15T00:19:33.422Z,11.50
2017-05-15T00:22:01.071Z,11.60
2017-05-15T00:24:28.298Z,11.60
2017-05-15T00:26:55.300Z,11.60
2017-05-15T00:29:22.205Z,11.70
2017-05-15T00:31:49.125Z,11.70
2017-05-15T00:34:16.029Z,11.70
2017-05-15T00:36:42.957Z,11.70
2017-05-15T00:39:10.633Z,11.70
2017-05-15T00:41:37.558Z,11.70
2017-05-15T00:44:05.209Z,11.80
2017-05-15T00:46:32.131Z,11.80
2017-05-15T00:48:59.050Z,11.80
2017-05-15T00:51:25.945Z,11.80
2017-05-15T00:53:53.605Z,11.80
2017-05-15T00:56:21.270Z,11.80
2017-05-15T00:58:48.943Z,11.80
2017-05-15T01:01:16.131Z,11.90
2017-05-15T01:03:43.026Z,11.90
2017-05-15T01:06:10.674Z,11.90
2017-05-15T01:08:37.902Z,11.90
2017-05-15T01:11:04.902Z,12.00
2017-05-15T01:13:31.815Z,12.00
2017-05-15T01:15:58.771Z,12.00
2017-05-15T01:18:26.434Z,12.00
2017-05-15T01:20:54.093Z,11.90
2017-05-15T01:23:21.725Z,11.90
2017-05-15T01:25:48.647Z,12.00
2017-05-15T01:28:15.549Z,11.90
2017-05-15T01:30:42.470Z,11.90
2017-05-15T01:33:09.386Z,11.90
2017-05-15T01:35:36.333Z,11.90
2017-05-15T01:38:03.257Z,11.90
2017-05-15T01:40:30.629Z,11.90
2017-05-15T01:42:57.581Z,12.00
2017-05-15T01:45:24.550Z,12.00
2017-05-15T01:47:51.773Z,12.00
2017-05-15T01:50:18.725Z,12.00
2017-05-15T01:52:45.726Z,12.00
2017-05-15T01:55:13.426Z,12.00
2017-05-15T01:57:40.371Z,12.10
2017-05-15T02:00:07.307Z,12.10
2017-05-15T02:02:34.238Z,12.10
2017-05-15T02:05:01.196Z,12.10
2017-05-15T02:07:28.150Z,12.10
2017-05-15T02:09:55.110Z,12.10
2017-05-15T02:12:22.065Z,12.20
2017-05-15T02:14:49.753Z,12.20
2017-05-15T02:17:16.970Z,12.20
2017-05-15T02:19:43.923Z,12.20
2017-05-15T02:22:11.613Z,12.20
2017-05-15T02:24:38.566Z,12.20
2017-05-15T02:27:05.541Z,12.20
2017-05-15T02:29:32.491Z,12.20
2017-05-15T02:31:59.449Z,12.20
2017-05-15T02:34:26.406Z,12.20
2017-05-15T02:36:53.374Z,12.20
2017-05-15T02:39:20.329Z,12.10
2017-05-15T02:41:47.275Z,12.10
2017-05-15T02:44:14.209Z,12.10
2017-05-15T02:46:41.406Z,12.00
2017-05-15T02:49:08.388Z,12.00
2017-05-15T02:51:36.085Z,11.90
2017-05-15T02:54:03.029Z,11.80
2017-05-15T02:56:29.995Z,11.70
2017-05-15T02:58:56.936Z,11.60
2017-05-15T03:01:23.879Z,11.50
2017-05-15T03:03:50.826Z,11.40
2017-05-15T03:06:17.794Z,11.30
2017-05-15T03:08:44.759Z,11.20
2017-05-15T03:11:12.415Z,11.10
2017-05-15T03:13:40.150Z,11.00
2017-05-15T03:16:07.102Z,11.00
2017-05-15T03:18:34.051Z,10.90
2017-05-15T03:21:00.989Z,10.80
2017-05-15T03:23:27.942Z,10.80
2017-05-15T03:25:54.878Z,10.70
2017-05-15T03:28:21.806Z,10.70
2017-05-15T03:30:48.774Z,10.60
2017-05-15T03:33:15.737Z,10.60
2017-05-15T03:35:42.693Z,10.50
2017-05-15T03:38:09.649Z,10.50
2017-05-15T03:40:36.570Z,10.50
2017-05-15T03:43:04.277Z,10.50
2017-05-15T03:45:31.622Z,10.50
2017-05-15T03:47:58.559Z,10.50
2017-05-15T03:50:25.529Z,10.60
2017-05-15T03:52:52.788Z,10.60
2017-05-15T03:55:19.769Z,10.60
2017-05-15T03:57:47.453Z,10.60
2017-05-15T04:00:14.455Z,10.70
2017-05-15T04:02:41.403Z,10.70
2017-05-15T04:05:08.341Z,10.70
2017-05-15T04:07:35.326Z,10.80
2017-05-15T04:10:02.322Z,10.80
2017-05-15T04:12:29.265Z,10.80
2017-05-15T04:14:56.339Z,10.80
2017-05-15T04:17:24.011Z,10.90
2017-05-15T04:19:51.713Z,11.00
2017-05-15T04:22:18.669Z,11.50
2017-05-15T04:24:45.618Z,12.50
2017-05-15T04:27:12.598Z,13.60
2017-05-15T04:29:40.300Z,14.80
2017-05-15T04:32:07.274Z,15.90
2017-05-15T04:34:34.217Z,17.00
2017-05-15T04:37:01.183Z,17.90
2017-05-15T04:39:28.116Z,18.70
2017-05-15T04:41:55.267Z,19.50
2017-05-15T04:44:22.266Z,20.10
2017-05-15T04:46:49.262Z,20.80
2017-05-15T04:49:16.247Z,21.30
2017-05-15T04:51:43.589Z,21.90
2017-05-15T04:54:10.580Z,22.60
2017-05-15T04:56:37.618Z,23.00
2017-05-15T04:59:04.727Z,23.40
2017-05-15T05:01:31.763Z,23.90
2017-05-15T05:03:58.961Z,24.30
2017-05-15T05:06:26.370Z,24.70
2017-05-15T05:08:54.385Z,25.20
2017-05-15T05:11:21.530Z,25.70
2017-05-15T05:13:48.823Z,25.90
2017-05-15T05:16:16.202Z,26.10
2017-05-15T05:18:43.532Z,26.30
2017-05-15T05:21:20.803Z,26.70
2017-05-15T05:24:19.030Z,27.10
2017-05-15T05:27:38.556Z,27.30
2017-05-15T05:30:22.683Z,27.60
2017-05-15T05:32:58.930Z,27.90
2017-05-15T05:36:00.534Z,28.30
2017-05-15T05:39:10.119Z,28.80
2017-05-15T05:55:15.728Z,31.70
2017-05-15T05:57:42.990Z,30.50
2017-05-15T06:00:23.189Z,29.40
2017-05-15T06:03:14.379Z,28.00
2017-05-15T06:05:53.693Z,26.50
2017-05-15T06:08:33.173Z,25.40
2017-05-15T06:11:12.549Z,25.30
2017-05-15T06:13:51.965Z,26.00
2017-05-15T06:19:14.228Z,26.10
2017-05-15T06:36:12.882Z,21.90
2017-05-15T06:38:52.134Z,21.30
2017-05-15T06:41:31.254Z,20.60
2017-05-15T06:43:58.115Z,20.10
2017-05-15T06:46:25.057Z,21.40
2017-05-15T06:48:51.997Z,23.10
2017-05-15T06:51:18.965Z,24.00
2017-05-15T06:53:46.676Z,24.30
2017-05-15T06:56:14.096Z,24.10
2017-05-15T06:58:41.048Z,23.70
2017-05-15T07:01:09.340Z,23.20
2017-05-15T07:03:36.602Z,23.00
2017-05-15T07:06:03.665Z,23.50
2017-05-15T07:08:31.116Z,24.50
2017-05-15T07:10:58.463Z,25.10
2017-05-15T07:13:29.133Z,26.70
2017-05-15T07:15:56.432Z,27.10
2017-05-15T07:18:28.040Z,26.60
2017-05-15T07:20:55.718Z,25.40
2017-05-15T07:23:30.623Z,24.50
2017-05-15T07:25:58.129Z,25.30
2017-05-15T07:28:30.058Z,27.30
2017-05-15T07:30:59.304Z,28.60
2017-05-15T07:33:26.603Z,28.40
2017-05-15T07:36:03.896Z,27.70
2017-05-15T07:38:34.379Z,26.60
2017-05-15T07:41:02.462Z,25.40
2017-05-15T07:43:29.810Z,24.80
2017-05-15T07:45:59.133Z,24.30
2017-05-15T07:48:31.174Z,23.60
2017-05-15T07:50:59.021Z,23.00
2017-05-15T07:53:26.967Z,22.70
2017-05-15T07:55:54.839Z,22.60
2017-05-15T07:58:22.355Z,22.80
2017-05-15T08:00:49.646Z,22.80
2017-05-15T08:03:16.948Z,22.60
2017-05-15T08:05:44.246Z,22.20
2017-05-15T08:08:11.541Z,21.50
2017-05-15T08:10:38.793Z,21.50
2017-05-15T08:13:06.015Z,21.30
2017-05-15T08:15:33.045Z,21.00
2017-05-15T08:18:00.045Z,20.60
2017-05-15T08:20:27.019Z,20.30
2017-05-15T08:22:54.012Z,20.10
2017-05-15T08:25:21.004Z,20.20
2017-05-15T08:27:48.731Z,20.10
2017-05-15T08:30:15.795Z,20.00
2017-05-15T08:32:43.080Z,19.90
2017-05-15T08:35:10.773Z,19.80
2017-05-15T08:37:37.752Z,19.80
2017-05-15T08:40:04.759Z,19.90
2017-05-15T08:42:31.794Z,20.00
2017-05-15T08:44:58.811Z,19.90
2017-05-15T08:47:25.774Z,19.90
2017-05-15T08:49:52.698Z,20.10
2017-05-15T08:52:20.410Z,20.70
2017-05-15T08:54:48.065Z,21.30
2017-05-15T08:57:15.177Z,21.80
2017-05-15T08:59:42.901Z,22.00
2017-05-15T09:02:10.520Z,22.00
2017-05-15T09:04:38.366Z,21.70
2017-05-15T09:07:05.554Z,21.50
2017-05-15T09:09:33.510Z,21.40
2017-05-15T09:12:00.593Z,21.40
2017-05-15T09:14:28.733Z,21.40
2017-05-15T09:16:56.724Z,21.50
2017-05-15T09:19:24.779Z,21.60
2017-05-15T09:21:51.983Z,21.70
2017-05-15T09:24:19.483Z,21.60
2017-05-15T09:26:46.705Z,21.60
2017-05-15T09:29:13.787Z,21.60
2017-05-15T09:31:41.366Z,21.60
2017-05-15T09:34:08.520Z,21.60
2017-05-15T09:36:35.755Z,21.70
2017-05-15T09:39:02.920Z,21.80
2017-05-15T09:41:31.290Z,22.00
2017-05-15T09:44:00.767Z,22.10
2017-05-15T09:46:34.235Z,22.10
2017-05-15T09:49:01.627Z,21.90
2017-05-15T09:51:29.062Z,21.60
2017-05-15T09:54:01.534Z,21.60
2017-05-15T09:56:28.791Z,21.50
2017-05-15T09:59:07.583Z,21.60
2017-05-15T10:01:35.316Z,21.60
2017-05-15T10:06:35.419Z,21.60
2017-05-15T10:09:03.617Z,21.50
2017-05-15T10:11:30.810Z,21.30
2017-05-15T10:13:58.857Z,21.10
2017-05-15T10:16:28.520Z,21.00
2017-05-15T10:18:56.760Z,20.70
2017-05-15T10:21:24.138Z,20.70
2017-05-15T10:23:51.325Z,20.80
2017-05-15T10:26:18.915Z,21.00
2017-05-15T10:28:46.689Z,21.10
2017-05-15T10:31:14.502Z,21.30
2017-05-15T10:33:42.291Z,21.30
2017-05-15T10:36:10.923Z,21.20
2017-05-15T10:38:38.140Z,21.10
2017-05-15T10:41:05.937Z,21.10
2017-05-15T10:43:33.015Z,21.10
2017-05-15T10:46:01.349Z,20.90
2017-05-15T10:48:29.240Z,20.70
2017-05-15T10:50:56.396Z,20.50
2017-05-15T10:53:23.555Z,20.40
2017-05-15T10:55:50.588Z,20.40
2017-05-15T10:58:17.618Z,20.30
2017-05-15T11:00:44.626Z,20.20
2017-05-15T11:03:11.637Z,20.30
2017-05-15T11:05:38.653Z,20.40
2017-05-15T11:08:05.689Z,20.50
2017-05-15T11:10:33.498Z,20.60
2017-05-15T11:13:00.638Z,20.90
2017-05-15T11:15:28.553Z,21.20
2017-05-15T11:17:55.680Z,21.60
2017-05-15T11:20:22.824Z,22.00
2017-05-15T11:22:50.871Z,22.20
2017-05-15T14:12:57.756Z,20.20
2017-05-15T14:18:22.319Z,19.50
2017-05-15T14:20:50.319Z,19.20
2017-05-15T14:23:18.075Z,18.90
2017-05-15T14:25:45.680Z,18.70
2017-05-15T14:28:14.123Z,18.60
2017-05-15T14:30:42.567Z,18.40
2017-05-15T14:33:10.242Z,18.40
2017-05-15T14:35:37.526Z,18.30
2017-05-15T14:38:05.771Z,18.30
2017-05-15T14:40:33.100Z,18.30
2017-05-15T14:43:00.400Z,18.30
2017-05-15T14:45:28.885Z,18.30
2017-05-15T14:47:56.955Z,18.20
2017-05-15T14:50:25.176Z,18.00
2017-05-15T14:52:52.543Z,18.00
2017-05-15T14:55:19.886Z,17.90
2017-05-15T14:57:47.601Z,17.90
2017-05-15T15:00:16.214Z,17.90
2017-05-15T15:02:43.107Z,17.90
2017-05-15T15:05:11.254Z,17.90
2017-05-15T15:07:38.705Z,17.90
2017-05-15T15:10:06.206Z,17.90
2017-05-15T15:12:34.304Z,18.00
2017-05-15T15:15:02.182Z,18.10
2017-05-15T15:17:31.266Z,18.30
2017-05-15T15:19:59.387Z,18.40
2017-05-15T15:22:29.361Z,18.60
2017-05-15T15:24:57.600Z,18.90
2017-05-15T15:27:27.148Z,19.20
2017-05-15T15:29:55.658Z,19.50
2017-05-15T15:32:24.246Z,19.60
2017-05-15T15:34:52.392Z,19.80
2017-05-15T15:37:21.876Z,20.00
2017-05-15T15:42:40.053Z,20.30
2017-05-15T15:45:16.266Z,20.40
2017-05-15T15:47:56.603Z,20.30
2017-05-15T15:50:34.437Z,20.20
2017-05-15T15:55:59.177Z,19.90
2017-05-15T15:58:27.902Z,19.90
2017-05-15T16:00:57.929Z,19.80
2017-05-15T16:05:58.456Z,19.60
2017-05-15T16:08:27.411Z,19.60
2017-05-15T16:10:56.248Z,19.50
2017-05-15T16:13:25.643Z,19.40
2017-05-15T16:15:54.203Z,19.30
2017-05-15T16:18:23.003Z,19.20
2017-05-15T16:20:51.248Z,19.10
2017-05-15T16:23:19.416Z,19.10
2017-05-15T16:25:50.495Z,19.00
2017-05-15T16:28:20.074Z,19.00
2017-05-15T16:30:48.975Z,18.90
2017-05-15T16:33:17.465Z,18.80
2017-05-15T16:35:45.690Z,18.70
2017-05-15T16:38:13.006Z,18.60
2017-05-15T16:40:40.312Z,18.60
2017-05-15T16:43:08.685Z,18.50
2017-05-15T16:45:36.817Z,18.40
2017-05-15T16:48:04.669Z,18.30
2017-05-15T16:50:33.543Z,18.20
2017-05-15T16:53:02.262Z,18.10
2017-05-15T16:55:29.461Z,18.00
2017-05-15T16:57:56.553Z,17.90
2017-05-15T17:00:23.599Z,17.90
2017-05-15T17:02:50.886Z,17.80
2017-05-15T17:05:17.891Z,17.80
2017-05-15T17:07:44.880Z,17.70
2017-05-15T17:10:12.645Z,17.70
2017-05-15T17:12:40.389Z,17.70
2017-05-15T17:15:07.370Z,17.70
2017-05-15T17:17:36.375Z,17.60
2017-05-15T17:20:03.538Z,17.50
2017-05-15T17:22:30.612Z,17.40
2017-05-15T17:24:58.531Z,17.40
2017-05-15T17:27:25.867Z,17.20
2017-05-15T17:29:53.096Z,17.20
2017-05-15T17:32:20.904Z,17.00
2017-05-15T17:34:47.921Z,17.00
2017-05-15T17:37:14.899Z,16.90
2017-05-15T17:39:42.682Z,16.80
2017-05-15T17:42:11.485Z,16.70
2017-05-15T17:44:39.397Z,16.60
2017-05-15T17:47:07.325Z,16.60
2017-05-15T17:49:37.420Z,16.60
2017-05-15T17:52:05.378Z,16.50
2017-05-15T17:54:32.440Z,16.50
2017-05-15T17:57:00.047Z,16.40
2017-05-15T17:59:27.229Z,16.30
2017-05-15T18:01:54.805Z,16.30
2017-05-15T18:04:21.887Z,16.20
2017-05-15T18:06:48.930Z,16.10
2017-05-15T18:09:17.952Z,16.00
2017-05-15T18:11:45.036Z,16.00
2017-05-15T18:14:12.523Z,15.90
2017-05-15T18:16:40.918Z,15.80
2017-05-15T18:19:09.162Z,15.80
2017-05-15T18:21:36.268Z,15.70
2017-05-15T18:24:03.621Z,15.60
2017-05-15T18:26:31.171Z,15.60
2017-05-15T18:28:58.159Z,15.40
2017-05-15T18:31:25.184Z,15.40
2017-05-15T18:33:52.378Z,15.30
2017-05-15T18:36:19.526Z,15.20
2017-05-15T18:38:46.618Z,15.10
2017-05-15T18:41:13.678Z,15.00
2017-05-15T18:43:40.679Z,14.90
2017-05-15T18:46:08.095Z,14.80
2017-05-15T18:48:35.301Z,14.70
2017-05-15T18:51:03.357Z,14.60
2017-05-15T18:53:31.237Z,14.50
2017-05-15T18:55:58.553Z,14.40
2017-05-15T18:58:25.920Z,14.30
2017-05-15T19:00:53.703Z,14.30
2017-05-15T19:03:21.047Z,14.20
2017-05-15T19:05:49.553Z,14.10
2017-05-15T19:08:17.271Z,14.10
2017-05-15T19:10:50.347Z,14.10
2017-05-15T19:13:18.614Z,14.00
2017-05-15T19:15:45.931Z,14.00
2017-05-15T19:18:13.240Z,14.00
2017-05-15T19:20:40.548Z,13.90
2017-05-15T19:23:07.701Z,13.90
2017-05-15T19:25:34.949Z,13.90
2017-05-15T19:28:02.083Z,13.80
2017-05-15T19:30:29.865Z,13.70
2017-05-15T19:32:56.829Z,13.70
2017-05-15T19:35:24.493Z,13.60
2017-05-15T19:37:51.719Z,13.60
2017-05-15T19:40:19.754Z,13.50
2017-05-15T19:42:47.643Z,13.40
2017-05-15T19:45:15.576Z,13.40
2017-05-15T19:47:43.225Z,13.30
2017-05-15T19:50:11.015Z,13.30
2017-05-15T19:52:38.072Z,13.20
2017-05-15T19:55:05.182Z,13.10
2017-05-15T19:57:32.201Z,13.10
2017-05-15T19:59:59.258Z,13.00
2017-05-15T20:02:26.252Z,12.90
2017-05-15T20:04:54.070Z,12.80
2017-05-15T20:07:21.427Z,12.80
2017-05-15T20:09:48.507Z,12.80
2017-05-15T20:12:16.832Z,12.70
2017-05-15T20:14:44.088Z,12.70
2017-05-15T20:17:11.146Z,12.60
2017-05-15T20:19:38.932Z,12.50
2017-05-15T20:22:06.641Z,12.40
2017-05-15T20:24:33.684Z,12.40
2017-05-15T20:27:01.604Z,12.30
2017-05-15T20:29:28.941Z,12.20
2017-05-15T20:31:57.466Z,12.20
2017-05-15T20:34:24.483Z,12.10
2017-05-15T20:36:51.639Z,12.10
2017-05-15T20:39:18.666Z,12.00
2017-05-15T20:41:46.438Z,12.00
2017-05-15T20:44:14.162Z,11.90
2017-05-15T20:46:41.134Z,11.80
2017-05-15T20:49:08.090Z,11.80
2017-05-15T20:51:35.255Z,11.70
2017-05-15T20:54:02.304Z,11.60
2017-05-15T20:56:29.405Z,11.60
2017-05-15T20:58:56.407Z,11.50
2017-05-15T21:01:23.724Z,11.50
2017-05-15T21:03:50.813Z,11.40
2017-05-15T21:06:18.110Z,11.40
2017-05-15T21:08:45.102Z,11.30
2017-05-15T21:11:12.137Z,11.30
2017-05-15T21:13:39.179Z,11.20
2017-05-15T21:16:06.171Z,11.20
2017-05-15T21:18:33.261Z,11.10
2017-05-15T21:21:00.849Z,11.00
2017-05-15T21:23:28.813Z,11.00
2017-05-15T21:25:55.768Z,10.90
2017-05-15T21:28:23.474Z,10.80
2017-05-15T21:30:50.594Z,10.80
2017-05-15T21:33:18.325Z,10.80
2017-05-15T21:35:45.859Z,10.80
2017-05-15T21:38:14.322Z,10.70
2017-05-15T21:40:41.680Z,10.70
2017-05-15T21:43:09.020Z,10.70
2017-05-15T21:45:36.098Z,10.60
2017-05-15T21:48:03.171Z,10.60
2017-05-15T21:50:30.544Z,10.50
2017-05-15T21:52:57.660Z,10.50
2017-05-15T21:55:24.781Z,10.40
2017-05-15T21:57:52.146Z,10.40
2017-05-15T22:00:19.230Z,10.40
2017-05-15T22:02:46.333Z,10.30
2017-05-15T22:05:13.429Z,10.30
2017-05-15T22:07:41.051Z,10.30
2017-05-15T22:10:08.124Z,10.30
2017-05-15T22:12:35.149Z,10.30
2017-05-15T22:15:03.012Z,10.20
2017-05-15T22:17:30.059Z,10.20
2017-05-15T22:19:57.129Z,10.20
2017-05-15T22:22:24.672Z,10.10
2017-05-15T22:24:51.752Z,10.10
2017-05-15T22:27:19.128Z,10.00
2017-05-15T22:29:46.159Z,10.00
2017-05-15T22:32:14.005Z,9.90
2017-05-15T22:34:41.487Z,9.90
2017-05-15T22:37:09.292Z,9.90
2017-05-15T22:39:36.401Z,9.90
2017-05-15T22:42:04.305Z,9.80
2017-05-15T22:44:31.320Z,9.80
2017-05-15T22:46:58.364Z,9.80
2017-05-15T22:49:26.832Z,9.70
2017-05-15T22:51:54.799Z,9.70
2017-05-15T22:54:22.558Z,9.70
2017-05-15T22:56:50.375Z,9.60
2017-05-15T22:59:17.383Z,9.60
2017-05-15T23:01:45.135Z,9.60
2017-05-15T23:04:14.172Z,9.60
2017-05-15T23:06:41.281Z,9.60
2017-05-15T23:09:09.227Z,9.50
2017-05-15T23:11:36.242Z,9.50
2017-05-15T23:14:03.335Z,9.50
2017-05-15T23:16:30.347Z,9.40
2017-05-15T23:18:57.403Z,9.50
2017-05-15T23:21:24.547Z,9.40
2017-05-15T23:23:51.672Z,9.40
2017-05-15T23:26:18.649Z,9.40
2017-05-15T23:28:45.649Z,9.40
2017-05-15T23:31:12.667Z,9.30
2017-05-15T23:33:40.117Z,9.30
2017-05-15T23:36:07.204Z,9.30
2017-05-15T23:38:34.201Z,9.30
2017-05-15T23:41:01.220Z,9.30
2017-05-15T23:43:28.214Z,9.20
2017-05-15T23:45:55.911Z,9.20
2017-05-15T23:48:22.922Z,9.20
2017-05-15T23:50:50.677Z,9.10
2017-05-15T23:53:18.413Z,9.10
2017-05-15T23:55:45.793Z,9.10
2017-05-15T23:58:12.878Z,9.00
